Bangkok Pilot, Thailand

10:37 PM ICT on October 22, 2014 (GMT +0700)
Dokmai, Pravet | Change Station
CLOSE
Current Station
Personal Weather Station
Location: Bangkok, BANGKOK
Elevation: 10 ft
Nearby Weather Stations

Elev 10 ft 13.67 °N, 100.70 °E | Updated 1 second ago

Mostly Cloudy
Mostly Cloudy
82.4 °F
Feels Like 85 °F
N
1.0
Wind Variable Wind from East
Gusts 2.0 mph

Today
High -- | Low -- °F
--% Chance of Precip.
Yesterday
High -- | Low -- °F
Precip. -- in
6:09 AM 5:54 PM
Waning Crescent, 2% visible
Pressure 29.92 in
Visibility 6.2 miles
Clouds Few 2000 ft
Scattered Clouds 12000 ft
Mostly Cloudy 30000 ft
Heat Index 85 °F
Dew Point 67 °F
Humidity 60%
Rainfall 0.18 in
Snow Depth Not available.
UV 0.0 out of 12
Pollen Not available.
Air Quality Not available.
Flu Activity Not available.
METAR VTBS 221530Z 04003KT 9999 FEW020CB SCT120 BKN300 29/23 Q1013 NOSIG

More Conditions Fewer Conditions

Pressure 29.92 in
Visibility 6.2 miles
Clouds Few 2000 ft
Scattered Clouds 12000 ft
Mostly Cloudy 30000 ft
Heat Index 85 °F
Dew Point 67 °F
Humidity 60%
Rainfall 0.18 in
Snow Depth Not available.
UV 0.0 out of 12
Pollen Not available.
Air Quality Not available.
Flu Activity Not available.
METAR VTBS 221530Z 04003KT 9999 FEW020CB SCT120 BKN300 29/23 Q1013 NOSIG

More Conditions Fewer Conditions

10-Day Weather Forecast

Almanac

Astronomy

Oct. 22, 2014 Rise Set
Actual Time 6:09 AM ICT 5:54 PM ICT
Civil Twilight 5:47 AM ICT 6:16 PM ICT
Nautical Twilight 5:22 AM ICT 6:41 PM ICT
Astronomical Twilight 4:57 AM ICT 7:06 PM ICT
Moon 4:37 AM ICT 4:50 PM ICT
Length of Visible Light 12h 28m
Length of Day
11h 45m
Tomorrow will be 0m 42s shorter.
Waning Crescent, 2% of the Moon is Illuminated
Today
Waning Crescent
Oct 23
New
Oct 30
First Quarter
Nov 6
Full
Nov 14
Last Quarter

Today's Extremes

Country Highs Country Lows

Community

WunderPhotos

Upload Photos

1,763,949 photos uploaded!

Nearby

Snow Depth

Not available.

Earthquake Activity

City Distance Mag. Time & Date
No recent earthquake activity has been reported nearby.
Minimum magnitude displayed is 2.5.

Coastal Water Temperatures

Place Temperature
No Stations Reporting

Nearby Weather Stations